Time;durP1;ratioP1;P1;durP2;ratioP2;P2;SDS_P1;SDS_P2;PMS_P1;PMS_P2;Temp;Humidity;BMP_temperature;BMP_pressure;BME280_temperature;BME280_humidity;BME280_pressure;Samples;Min_cycle;Max_cycle;Signal;HPM_P1;HPM_P2
2022/07/18 00:01:13;;;;;;;;;;;;;;;;;;4985756;28;19921;-41
2022/07/18 00:03:40;;;;;;;;;;;;;;;;;;4985691;28;19910;-41
2022/07/18 00:06:06;;;;;;;;;;;;;;;;;;4986022;28;19913;-41
2022/07/18 00:08:32;;;;;;;;;;;;;;;;;;4986257;28;20330;-42
2022/07/18 00:10:59;;;;;;;;;;;;;;;;;;4985501;28;19925;-42
2022/07/18 00:13:28;;;;;;;;;;;;;;;;;;4985311;28;20224;-41
2022/07/18 00:15:54;;;;;;;;;;;;;;;;;;4985692;28;19920;-41
2022/07/18 00:18:21;;;;;;;;;;;;;;;;;;4986389;28;20000;-41
2022/07/18 00:20:47;;;;;;;;;;;;;;;;;;4985723;28;19920;-41
2022/07/18 00:23:12;;;;;;;;;;;;;;;;;;4985728;28;19914;-41
2022/07/18 00:25:39;;;;;;;;;;;;;;;;;;4985766;28;19918;-42
2022/07/18 00:28:05;;;;;;;;;;;;;;;;;;4985823;28;19985;-42
2022/07/18 00:30:31;;;;;;;;;;;;;;;;;;4985795;28;19964;-41
2022/07/18 00:32:58;;;;;;;;;;;;;;;;;;4985505;28;20446;-42
2022/07/18 00:35:24;;;;;;;;;;;;;;;;;;4985887;28;19914;-40
2022/07/18 00:37:51;;;;;;;;;;;;;;;;;;4986139;28;19918;-41
2022/07/18 00:40:17;;;;;;;;;;;;;;;;;;4985667;28;19960;-41
2022/07/18 00:42:43;;;;;;;;;;;;;;;;;;4985434;28;20445;-41
2022/07/18 00:45:09;;;;;;;;;;;;;;;;;;4985757;28;19932;-41
2022/07/18 00:47:35;;;;;;;;;;;;;;;;;;4985366;28;19928;-40
2022/07/18 00:50:03;;;;;;;;;;;;;;;;;;4985497;28;19922;-41
2022/07/18 00:52:29;;;;;;;;;;;;;;;;;;4985805;28;19921;-40
2022/07/18 00:54:56;;;;;;;;;;;;;;;;;;4986762;28;20465;-41
2022/07/18 00:57:22;;;;;;;;;;;;;;;;;;4989843;28;19910;-41
2022/07/18 01:02:32;;;;;;;;;;;;;;;;;;4989060;28;19967;-41
2022/07/18 01:04:58;;;;;;;;;;;;;;;;;;4989021;28;20321;-41
2022/07/18 01:07:24;;;;;;;;;;;;;;;;;;4989304;28;20111;-43
2022/07/18 01:09:50;;;;;;;;;;;;;;;;;;4989405;28;19910;-41
2022/07/18 01:12:17;;;;;;;;;;;;;;;;;;4989257;28;19913;-41
2022/07/18 01:14:43;;;;;;;;;;;;;;;;;;4989094;28;19917;-41
2022/07/18 01:17:10;;;;;;;;;;;;;;;;;;4988803;28;20483;-40
2022/07/18 01:19:36;;;;;;;;;;;;;;;;;;4988825;28;20064;-42
2022/07/18 01:22:02;;;;;;;;;;;;;;;;;;4988765;28;20383;-41
2022/07/18 01:24:28;;;;;;;;;;;;;;;;;;4988984;28;19986;-41
2022/07/18 01:26:54;;;;;;;;;;;;;;;;;;4988771;28;19913;-41
2022/07/18 01:29:21;;;;;;;;;;;;;;;;;;4989364;28;19921;-41
2022/07/18 01:31:47;;;;;;;;;;;;;;;;;;4988485;28;19933;-42
2022/07/18 01:34:14;;;;;;;;;;;;;;;;;;4988712;28;20402;-42
2022/07/18 01:36:40;;;;;;;;;;;;;;;;;;4988662;28;20376;-41
2022/07/18 01:39:07;;;;;;;;;;;;;;;;;;4988634;28;19914;-41
2022/07/18 01:41:34;;;;;;;;;;;;;;;;;;4988091;28;19917;-40
2022/07/18 01:43:59;;;;;;;;;;;;;;;;;;4988844;28;19914;-41
2022/07/18 01:46:25;;;;;;;;;;;;;;;;;;4988546;28;20037;-43
2022/07/18 01:48:51;;;;;;;;;;;;;;;;;;4988757;28;19909;-40
2022/07/18 01:51:17;;;;;;;;;;;;;;;;;;4988634;28;20371;-41
2022/07/18 01:53:43;;;;;;;;;;;;;;;;;;4988158;28;19949;-41
2022/07/18 01:56:10;;;;;;;;;;;;;;;;;;4988301;28;20409;-40
2022/07/18 01:58:37;;;;;;;;;;;;;;;;;;4988030;28;19909;-41
2022/07/18 02:01:03;;;;;;;;;;;;;;;;;;4988068;28;20410;-41
2022/07/18 02:03:29;;;;;;;;;;;;;;;;;;4987965;28;19928;-41
2022/07/18 02:05:54;;;;;;;;;;;;;;;;;;4987555;28;19921;-40
2022/07/18 02:08:21;;;;;;;;;;;;;;;;;;4988899;28;19913;-40
2022/07/18 02:10:47;;;;;;;;;;;;;;;;;;4987707;28;20446;-42
2022/07/18 02:13:13;;;;;;;;;;;;;;;;;;4988449;28;19964;-41
2022/07/18 02:15:39;;;;;;;;;;;;;;;;;;4988219;28;19914;-41
2022/07/18 02:18:05;;;;;;;;;;;;;;;;;;4987962;28;19917;-40
2022/07/18 02:20:31;;;;;;;;;;;;;;;;;;4988393;28;20000;-40
2022/07/18 02:22:58;;;;;;;;;;;;;;;;;;4987704;28;20016;-40
2022/07/18 02:25:23;;;;;;;;;;;;;;;;;;4988127;28;19917;-41
2022/07/18 02:27:49;;;;;;;;;;;;;;;;;;4988438;28;19910;-41
2022/07/18 02:30:15;;;;;;;;;;;;;;;;;;4987721;28;19910;-41
2022/07/18 02:32:41;;;;;;;;;;;;;;;;;;4987598;28;20229;-40
2022/07/18 02:35:07;;;;;;;;;;;;;;;;;;4987772;28;19910;-41
2022/07/18 02:37:33;;;;;;;;;;;;;;;;;;4987752;28;19906;-41
2022/07/18 02:39:59;;;;;;;;;;;;;;;;;;4987740;28;20751;-41
2022/07/18 02:42:25;;;;;;;;;;;;;;;;;;4987574;28;19917;-41
2022/07/18 02:44:51;;;;;;;;;;;;;;;;;;4987985;28;19910;-40
2022/07/18 02:47:17;;;;;;;;;;;;;;;;;;4987314;28;19910;-42
2022/07/18 02:49:43;;;;;;;;;;;;;;;;;;4987137;28;20433;-41
2022/07/18 02:52:08;;;;;;;;;;;;;;;;;;4987331;28;19910;-40
2022/07/18 02:54:34;;;;;;;;;;;;;;;;;;4987139;28;20575;-41
2022/07/18 02:57:00;;;;;;;;;;;;;;;;;;4987317;28;20004;-41
2022/07/18 02:59:26;;;;;;;;;;;;;;;;;;4986961;28;19920;-41
2022/07/18 03:01:53;;;;;;;;;;;;;;;;;;4987450;28;19945;-42
2022/07/18 03:04:20;;;;;;;;;;;;;;;;;;4987709;28;20370;-40
2022/07/18 03:06:46;;;;;;;;;;;;;;;;;;4986886;28;19949;-41
2022/07/18 03:09:12;;;;;;;;;;;;;;;;;;4987116;28;19945;-41
2022/07/18 03:11:39;;;;;;;;;;;;;;;;;;4986782;28;20020;-41
2022/07/18 03:14:06;;;;;;;;;;;;;;;;;;4986923;28;20296;-40
2022/07/18 03:16:31;;;;;;;;;;;;;;;;;;4986442;28;19910;-40
2022/07/18 03:18:57;;;;;;;;;;;;;;;;;;4985704;28;19921;-41
2022/07/18 03:21:23;;;;;;;;;;;;;;;;;;4986488;28;20399;-41
2022/07/18 03:23:49;;;;;;;;;;;;;;;;;;4987411;28;20430;-40
2022/07/18 03:26:15;;;;;;;;;;;;;;;;;;4986403;28;19914;-41
2022/07/18 03:28:41;;;;;;;;;;;;;;;;;;4986696;28;19973;-40
2022/07/18 03:31:07;;;;;;;;;;;;;;;;;;4986004;28;19968;-40
2022/07/18 03:33:34;;;;;;;;;;;;;;;;;;4986656;28;20299;-41
2022/07/18 03:36:00;;;;;;;;;;;;;;;;;;4986349;28;19959;-40
2022/07/18 03:38:26;;;;;;;;;;;;;;;;;;4986726;28;20383;-40
2022/07/18 03:40:52;;;;;;;;;;;;;;;;;;4987010;28;19963;-40
2022/07/18 03:43:18;;;;;;;;;;;;;;;;;;4986610;28;19917;-41
2022/07/18 03:45:44;;;;;;;;;;;;;;;;;;4986401;28;20433;-40
2022/07/18 03:48:10;;;;;;;;;;;;;;;;;;4986173;28;20008;-41
2022/07/18 03:50:36;;;;;;;;;;;;;;;;;;4986662;28;20131;-40
2022/07/18 03:53:02;;;;;;;;;;;;;;;;;;4986103;28;19909;-40
2022/07/18 03:55:28;;;;;;;;;;;;;;;;;;4986398;28;19920;-41
2022/07/18 03:57:54;;;;;;;;;;;;;;;;;;4986079;28;19916;-41
2022/07/18 04:00:20;;;;;;;;;;;;;;;;;;4986732;28;19914;-42
2022/07/18 04:02:46;;;;;;;;;;;;;;;;;;4986069;28;19922;-40
2022/07/18 04:05:13;;;;;;;;;;;;;;;;;;4985857;28;20318;-41
2022/07/18 04:07:39;;;;;;;;;;;;;;;;;;4986219;28;19906;-40
2022/07/18 04:10:04;;;;;;;;;;;;;;;;;;4985839;28;20533;-40
2022/07/18 04:12:30;;;;;;;;;;;;;;;;;;4985963;28;19910;-40
2022/07/18 04:14:57;;;;;;;;;;;;;;;;;;4985849;28;20324;-40
2022/07/18 04:17:23;;;;;;;;;;;;;;;;;;4985814;28;19906;-40
2022/07/18 04:19:49;;;;;;;;;;;;;;;;;;4987016;28;19917;-40
2022/07/18 04:22:15;;;;;;;;;;;;;;;;;;4985561;28;19961;-40
2022/07/18 04:24:42;;;;;;;;;;;;;;;;;;4985964;28;19918;-40
2022/07/18 04:27:09;;;;;;;;;;;;;;;;;;4985541;28;20353;-40
2022/07/18 04:29:36;;;;;;;;;;;;;;;;;;4986733;28;19909;-41
2022/07/18 04:32:02;;;;;;;;;;;;;;;;;;4989371;28;19910;-40
2022/07/18 04:34:28;;;;;;;;;;;;;;;;;;4990095;28;19923;-40
2022/07/18 04:36:54;;;;;;;;;;;;;;;;;;4988198;28;19910;-41
2022/07/18 04:39:20;;;;;;;;;;;;;;;;;;4990790;28;19968;-40
2022/07/18 04:41:47;;;;;;;;;;;;;;;;;;4989499;28;19918;-40
2022/07/18 04:44:13;;;;;;;;;;;;;;;;;;4989473;28;19914;-40
2022/07/18 04:46:39;;;;;;;;;;;;;;;;;;4988230;28;20405;-40
2022/07/18 04:49:05;;;;;;;;;;;;;;;;;;4989349;28;19910;-40
2022/07/18 04:51:31;;;;;;;;;;;;;;;;;;4989522;28;19921;-40
2022/07/18 04:53:57;;;;;;;;;;;;;;;;;;4989448;28;19910;-40
2022/07/18 04:56:23;;;;;;;;;;;;;;;;;;4989382;28;19917;-42
2022/07/18 04:58:49;;;;;;;;;;;;;;;;;;4989792;28;19909;-41
2022/07/18 05:01:16;;;;;;;;;;;;;;;;;;4988839;28;20087;-41
2022/07/18 05:03:42;;;;;;;;;;;;;;;;;;4989302;28;20369;-40
2022/07/18 05:06:08;;;;;;;;;;;;;;;;;;4993102;28;19917;-40
2022/07/18 05:08:34;;;;;;;;;;;;;;;;;;5001968;28;19916;-40
2022/07/18 05:11:00;;;;;;;;;;;;;;;;;;5009480;28;19921;-40
2022/07/18 05:13:26;;;;;;;;;;;;;;;;;;4991346;28;20011;-40
2022/07/18 05:15:52;;;;;;;;;;;;;;;;;;5002473;28;19917;-41
2022/07/18 05:18:18;;;;;;;;;;;;;;;;;;5009932;28;19914;-40
2022/07/18 05:20:44;;;;;;;;;;;;;;;;;;5009871;28;20008;-40
2022/07/18 05:23:10;;;;;;;;;;;;;;;;;;5009414;28;19917;-39
2022/07/18 05:25:36;;;;;;;;;;;;;;;;;;5009865;28;19913;-40
2022/07/18 05:28:02;;;;;;;;;;;;;;;;;;5009489;28;19972;-40
2022/07/18 05:30:28;;;;;;;;;;;;;;;;;;5009382;28;19959;-40
2022/07/18 05:32:54;;;;;;;;;;;;;;;;;;5009499;28;19969;-40
2022/07/18 05:35:20;;;;;;;;;;;;;;;;;;5010452;28;20366;-39
2022/07/18 05:37:46;;;;;;;;;;;;;;;;;;5009556;28;19914;-41
2022/07/18 05:40:12;;;;;;;;;;;;;;;;;;5009194;28;19914;-40
2022/07/18 05:42:38;;;;;;;;;;;;;;;;;;5008151;28;19917;-40
2022/07/18 05:45:04;;;;;;;;;;;;;;;;;;5009352;28;19910;-40
2022/07/18 05:47:30;;;;;;;;;;;;;;;;;;5009592;28;19913;-40
2022/07/18 05:49:55;;;;;;;;;;;;;;;;;;5009328;28;19910;-40
2022/07/18 05:52:21;;;;;;;;;;;;;;;;;;5009927;28;20413;-40
2022/07/18 05:54:47;;;;;;;;;;;;;;;;;;5009435;28;20008;-40
2022/07/18 05:57:13;;;;;;;;;;;;;;;;;;4991344;28;19937;-40
2022/07/18 05:59:39;;;;;;;;;;;;;;;;;;4989524;28;19933;-42
2022/07/18 06:02:05;;;;;;;;;;;;;;;;;;4995279;28;19917;-40
2022/07/18 06:04:31;;;;;;;;;;;;;;;;;;5001605;28;19924;-40
2022/07/18 06:06:57;;;;;;;;;;;;;;;;;;5001859;28;19940;-40
2022/07/18 06:09:23;;;;;;;;;;;;;;;;;;4992685;28;19948;-41
2022/07/18 06:11:49;;;;;;;;;;;;;;;;;;4989942;28;19924;-41
2022/07/18 06:14:15;;;;;;;;;;;;;;;;;;4989325;28;19906;-41
2022/07/18 06:16:41;;;;;;;;;;;;;;;;;;4989780;28;19913;-41
2022/07/18 06:19:07;;;;;;;;;;;;;;;;;;4997512;28;19918;-41
2022/07/18 06:21:33;;;;;;;;;;;;;;;;;;5008826;28;20346;-41
2022/07/18 06:24:00;;;;;;;;;;;;;;;;;;5008826;28;19909;-41
2022/07/18 06:26:26;;;;;;;;;;;;;;;;;;5008685;28;20060;-42
2022/07/18 06:28:52;;;;;;;;;;;;;;;;;;4999828;28;20020;-41
2022/07/18 06:31:18;;;;;;;;;;;;;;;;;;5000147;28;19917;-40
2022/07/18 06:33:44;;;;;;;;;;;;;;;;;;5002218;28;19913;-43
2022/07/18 06:36:11;;;;;;;;;;;;;;;;;;5006482;28;20377;-40
2022/07/18 06:38:37;;;;;;;;;;;;;;;;;;5008725;28;19913;-41
2022/07/18 06:41:03;;;;;;;;;;;;;;;;;;4993654;28;20298;-40
2022/07/18 06:43:29;;;;;;;;;;;;;;;;;;4997009;28;19925;-42
2022/07/18 06:45:57;;;;;;;;;;;;;;;;;;4991375;28;19913;-43
2022/07/18 06:48:23;;;;;;;;;;;;;;;;;;4989940;28;19909;-42
2022/07/18 06:50:49;;;;;;;;;;;;;;;;;;4992966;28;19921;-42
2022/07/18 06:53:15;;;;;;;;;;;;;;;;;;4989541;28;19914;-42
2022/07/18 06:55:41;;;;;;;;;;;;;;;;;;4989824;28;19924;-42
2022/07/18 06:58:07;;;;;;;;;;;;;;;;;;5004970;28;19971;-42
2022/07/18 07:00:33;;;;;;;;;;;;;;;;;;5007256;28;19913;-43
2022/07/18 07:02:59;;;;;;;;;;;;;;;;;;4992732;28;20322;-42
2022/07/18 07:05:25;;;;;;;;;;;;;;;;;;4989906;28;19933;-42
2022/07/18 07:07:51;;;;;;;;;;;;;;;;;;5011555;28;19920;-43
2022/07/18 07:10:17;;;;;;;;;;;;;;;;;;5011405;28;19983;-42
2022/07/18 07:12:43;;;;;;;;;;;;;;;;;;5008681;28;20017;-42
2022/07/18 07:15:08;;;;;;;;;;;;;;;;;;5007931;28;19993;-42
2022/07/18 07:17:34;;;;;;;;;;;;;;;;;;4995896;28;19976;-42
2022/07/18 07:20:00;;;;;;;;;;;;;;;;;;5001667;28;19922;-42
2022/07/18 07:22:26;;;;;;;;;;;;;;;;;;5008784;28;19914;-42
2022/07/18 07:24:52;;;;;;;;;;;;;;;;;;5008410;28;19961;-42
2022/07/18 07:27:18;;;;;;;;;;;;;;;;;;4979688;28;20410;-45
2022/07/18 07:29:44;;;;;;;;;;;;;;;;;;4978459;28;20020;-43
2022/07/18 07:32:10;;;;;;;;;;;;;;;;;;5005065;28;19917;-43
2022/07/18 07:34:36;;;;;;;;;;;;;;;;;;5008246;28;19909;-42
2022/07/18 07:37:02;;;;;;;;;;;;;;;;;;5007392;28;19924;-44
2022/07/18 07:39:28;;;;;;;;;;;;;;;;;;5006180;28;19914;-45
2022/07/18 07:41:54;;;;;;;;;;;;;;;;;;5004386;28;20007;-43
2022/07/18 07:44:20;;;;;;;;;;;;;;;;;;5002704;28;19914;-42
2022/07/18 07:46:46;;;;;;;;;;;;;;;;;;5008413;28;19910;-44
2022/07/18 07:49:12;;;;;;;;;;;;;;;;;;4998426;28;19914;-43
2022/07/18 07:51:38;;;;;;;;;;;;;;;;;;4996896;28;19914;-47
2022/07/18 07:54:05;;;;;;;;;;;;;;;;;;4996637;28;19918;-43
2022/07/18 07:56:31;;;;;;;;;;;;;;;;;;5008268;28;19914;-44
2022/07/18 07:58:57;;;;;;;;;;;;;;;;;;5001016;28;19925;-45
2022/07/18 08:01:23;;;;;;;;;;;;;;;;;;4997965;28;20469;-42
2022/07/18 08:03:50;;;;;;;;;;;;;;;;;;4993164;28;20012;-43
2022/07/18 08:06:16;;;;;;;;;;;;;;;;;;5003549;28;19921;-45
2022/07/18 08:08:41;;;;;;;;;;;;;;;;;;4998127;28;19918;-43
2022/07/18 08:11:07;;;;;;;;;;;;;;;;;;4994387;28;20216;-43
2022/07/18 08:13:33;;;;;;;;;;;;;;;;;;4988572;28;19921;-43
2022/07/18 08:15:59;;;;;;;;;;;;;;;;;;4996347;28;19957;-42
2022/07/18 08:18:25;;;;;;;;;;;;;;;;;;4999792;28;19929;-43
2022/07/18 08:20:51;;;;;;;;;;;;;;;;;;4993503;28;19918;-43
2022/07/18 08:23:17;;;;;;;;;;;;;;;;;;4998020;28;19921;-43
2022/07/18 08:25:43;;;;;;;;;;;;;;;;;;4989323;28;20015;-44
2022/07/18 08:28:09;;;;;;;;;;;;;;;;;;4995873;28;19936;-44
2022/07/18 08:30:35;;;;;;;;;;;;;;;;;;4989516;28;19913;-43
2022/07/18 08:33:01;;;;;;;;;;;;;;;;;;4987951;28;19917;-43
2022/07/18 08:35:27;;;;;;;;;;;;;;;;;;5000165;28;19921;-43
2022/07/18 08:37:53;;;;;;;;;;;;;;;;;;5007744;28;19914;-42
2022/07/18 08:40:19;;;;;;;;;;;;;;;;;;4993725;28;19925;-43
2022/07/18 08:42:45;;;;;;;;;;;;;;;;;;4988932;28;19917;-42
2022/07/18 08:45:10;;;;;;;;;;;;;;;;;;4998228;28;19976;-43
2022/07/18 08:47:36;;;;;;;;;;;;;;;;;;5007120;28;19910;-43
2022/07/18 08:50:02;;;;;;;;;;;;;;;;;;5001062;28;19948;-44
2022/07/18 08:52:28;;;;;;;;;;;;;;;;;;4995016;28;20398;-43
2022/07/18 08:54:54;;;;;;;;;;;;;;;;;;4997467;28;19916;-42
2022/07/18 08:57:20;;;;;;;;;;;;;;;;;;5007283;28;19910;-42
2022/07/18 08:59:46;;;;;;;;;;;;;;;;;;5000299;28;19964;-44
2022/07/18 09:02:12;;;;;;;;;;;;;;;;;;4990252;28;19976;-43
2022/07/18 09:04:38;;;;;;;;;;;;;;;;;;5005659;28;19965;-42
2022/07/18 09:07:04;;;;;;;;;;;;;;;;;;5000704;28;19914;-42
2022/07/18 09:09:30;;;;;;;;;;;;;;;;;;4988536;28;19914;-43
2022/07/18 09:11:56;;;;;;;;;;;;;;;;;;4986937;28;20366;-44
2022/07/18 09:14:22;;;;;;;;;;;;;;;;;;5000687;28;19917;-42
2022/07/18 09:16:48;;;;;;;;;;;;;;;;;;5002144;28;20326;-44
2022/07/18 09:19:14;;;;;;;;;;;;;;;;;;4989881;28;19909;-43
2022/07/18 09:21:40;;;;;;;;;;;;;;;;;;4990050;28;20200;-44
2022/07/18 09:24:06;;;;;;;;;;;;;;;;;;4989855;28;19914;-44
2022/07/18 09:26:32;;;;;;;;;;;;;;;;;;4990035;28;19913;-43
2022/07/18 09:28:59;;;;;;;;;;;;;;;;;;4990713;28;19928;-43
2022/07/18 09:31:26;;;;;;;;;;;;;;;;;;4997144;28;19957;-44
2022/07/18 09:33:52;;;;;;;;;;;;;;;;;;5024070;28;19913;-43
2022/07/18 09:36:17;;;;;;;;;;;;;;;;;;5021261;28;19956;-45
2022/07/18 09:38:43;;;;;;;;;;;;;;;;;;5009494;28;20420;-44
2022/07/18 09:41:09;;;;;;;;;;;;;;;;;;5009121;28;19909;-43
2022/07/18 09:43:36;;;;;;;;;;;;;;;;;;5009158;28;20452;-43
2022/07/18 09:46:02;;;;;;;;;;;;;;;;;;5009404;28;19920;-44
2022/07/18 09:48:28;;;;;;;;;;;;;;;;;;5009231;28;20370;-43
2022/07/18 09:50:55;;;;;;;;;;;;;;;;;;5002805;28;20005;-44
2022/07/18 09:53:24;;;;;;;;;;;;;;;;;;4990285;28;20318;-46
2022/07/18 09:55:50;;;;;;;;;;;;;;;;;;4990506;28;19920;-43
2022/07/18 09:58:16;;;;;;;;;;;;;;;;;;5008224;28;19914;-43
2022/07/18 10:00:42;;;;;;;;;;;;;;;;;;4997079;28;19921;-44
2022/07/18 10:03:08;;;;;;;;;;;;;;;;;;4993254;28;19929;-45
2022/07/18 10:05:34;;;;;;;;;;;;;;;;;;4994782;28;19937;-43
2022/07/18 10:08:00;;;;;;;;;;;;;;;;;;5006395;28;20367;-44
2022/07/18 10:10:26;;;;;;;;;;;;;;;;;;5009722;28;19925;-44
2022/07/18 10:12:52;;;;;;;;;;;;;;;;;;5002973;28;20004;-44
2022/07/18 10:15:18;;;;;;;;;;;;;;;;;;4999332;28;19917;-47
2022/07/18 10:17:44;;;;;;;;;;;;;;;;;;4993953;28;19925;-43
2022/07/18 10:20:10;;;;;;;;;;;;;;;;;;4995750;28;19910;-44
2022/07/18 10:22:36;;;;;;;;;;;;;;;;;;4998386;28;20385;-44
2022/07/18 10:25:02;;;;;;;;;;;;;;;;;;5009081;28;19914;-44
2022/07/18 10:27:28;;;;;;;;;;;;;;;;;;4998538;28;19917;-44
2022/07/18 10:29:54;;;;;;;;;;;;;;;;;;4990158;28;19936;-43
2022/07/18 10:32:20;;;;;;;;;;;;;;;;;;4991611;28;19956;-44
2022/07/18 10:34:46;;;;;;;;;;;;;;;;;;4989818;28;20032;-46
2022/07/18 10:37:12;;;;;;;;;;;;;;;;;;5004723;28;19989;-46
2022/07/18 10:39:38;;;;;;;;;;;;;;;;;;5004403;28;19924;-44
2022/07/18 10:42:04;;;;;;;;;;;;;;;;;;4994207;28;20302;-44
2022/07/18 10:44:30;;;;;;;;;;;;;;;;;;4993928;28;19924;-48
2022/07/18 10:46:56;;;;;;;;;;;;;;;;;;4990984;28;19921;-43
2022/07/18 10:49:22;;;;;;;;;;;;;;;;;;4998726;28;19961;-44
2022/07/18 10:51:48;;;;;;;;;;;;;;;;;;4988526;28;19914;-45
2022/07/18 10:54:14;;;;;;;;;;;;;;;;;;5001500;28;19964;-44
2022/07/18 10:56:40;;;;;;;;;;;;;;;;;;5006475;28;20012;-44
2022/07/18 10:59:06;;;;;;;;;;;;;;;;;;5005907;28;20000;-43
2022/07/18 11:01:32;;;;;;;;;;;;;;;;;;5006009;28;19920;-43
2022/07/18 11:06:43;;;;;;;;;;;;;;;;;;4987355;28;20791;-44
2022/07/18 11:09:09;;;;;;;;;;;;;;;;;;4986302;28;19953;-45
2022/07/18 11:11:35;;;;;;;;;;;;;;;;;;4986111;28;19964;-44
2022/07/18 11:14:01;;;;;;;;;;;;;;;;;;4986218;28;20290;-46
2022/07/18 11:16:27;;;;;;;;;;;;;;;;;;4991993;28;19967;-45
2022/07/18 11:18:53;;;;;;;;;;;;;;;;;;5005754;28;20428;-43
2022/07/18 11:21:20;;;;;;;;;;;;;;;;;;4995430;28;19917;-43
2022/07/18 11:23:46;;;;;;;;;;;;;;;;;;5001051;28;20213;-46
2022/07/18 11:26:12;;;;;;;;;;;;;;;;;;4992648;28;20032;-44
2022/07/18 11:28:39;;;;;;;;;;;;;;;;;;4991835;28;20283;-47
2022/07/18 11:31:06;;;;;;;;;;;;;;;;;;4989374;28;19910;-45
2022/07/18 11:33:32;;;;;;;;;;;;;;;;;;4986094;28;19917;-44
2022/07/18 11:35:57;;;;;;;;;;;;;;;;;;4998927;28;19925;-45
2022/07/18 11:38:23;;;;;;;;;;;;;;;;;;5005375;28;20347;-44
2022/07/18 11:40:49;;;;;;;;;;;;;;;;;;5004415;28;19917;-42
2022/07/18 11:43:15;;;;;;;;;;;;;;;;;;5002895;28;20031;-46
2022/07/18 11:45:43;;;;;;;;;;;;;;;;;;5004431;28;20476;-43
2022/07/18 11:48:08;;;;;;;;;;;;;;;;;;4991119;28;19926;-43
2022/07/18 11:50:34;;;;;;;;;;;;;;;;;;4997094;28;19917;-43
2022/07/18 11:53:00;;;;;;;;;;;;;;;;;;4992458;28;19913;-43
2022/07/18 11:55:27;;;;;;;;;;;;;;;;;;4985634;28;20004;-43
2022/07/18 11:57:55;;;;;;;;;;;;;;;;;;4985259;28;19909;-43
2022/07/18 12:00:21;;;;;;;;;;;;;;;;;;4984829;28;19917;-43
2022/07/18 12:02:47;;;;;;;;;;;;;;;;;;4985180;28;20298;-42
2022/07/18 12:05:13;;;;;;;;;;;;;;;;;;4994030;28;19924;-42
2022/07/18 12:07:40;;;;;;;;;;;;;;;;;;4994132;28;19917;-42
2022/07/18 12:10:06;;;;;;;;;;;;;;;;;;4998103;28;19918;-44
2022/07/18 12:12:33;;;;;;;;;;;;;;;;;;5002065;28;20302;-44
2022/07/18 12:15:00;;;;;;;;;;;;;;;;;;4996988;28;19917;-43
2022/07/18 12:17:26;;;;;;;;;;;;;;;;;;4985467;28;19914;-43
2022/07/18 12:19:52;;;;;;;;;;;;;;;;;;4984578;28;20283;-44
2022/07/18 12:22:19;;;;;;;;;;;;;;;;;;4985497;28;19925;-45
2022/07/18 12:24:45;;;;;;;;;;;;;;;;;;4986897;28;20370;-43
2022/07/18 12:27:13;;;;;;;;;;;;;;;;;;5004378;28;19906;-44
2022/07/18 12:29:39;;;;;;;;;;;;;;;;;;5004119;28;19920;-44
2022/07/18 12:32:04;;;;;;;;;;;;;;;;;;5004665;28;20012;-44
2022/07/18 12:34:31;;;;;;;;;;;;;;;;;;5003144;28;20626;-43
2022/07/18 12:36:57;;;;;;;;;;;;;;;;;;5003281;28;20009;-46
2022/07/18 12:39:23;;;;;;;;;;;;;;;;;;5004547;28;19979;-43
2022/07/18 12:41:49;;;;;;;;;;;;;;;;;;5003674;28;20401;-44
2022/07/18 12:44:15;;;;;;;;;;;;;;;;;;5003524;28;19960;-44
2022/07/18 12:46:41;;;;;;;;;;;;;;;;;;4996528;28;19984;-46
2022/07/18 12:49:06;;;;;;;;;;;;;;;;;;4983421;28;19910;-43
2022/07/18 12:51:32;;;;;;;;;;;;;;;;;;4987457;28;19914;-44
2022/07/18 12:53:58;;;;;;;;;;;;;;;;;;4989277;28;19922;-46
2022/07/18 12:56:25;;;;;;;;;;;;;;;;;;5004598;28;19949;-46
2022/07/18 12:58:52;;;;;;;;;;;;;;;;;;5003073;28;20386;-43
2022/07/18 13:01:19;;;;;;;;;;;;;;;;;;5008909;28;19920;-44
2022/07/18 13:03:46;;;;;;;;;;;;;;;;;;5001894;28;19944;-45
2022/07/18 13:06:12;;;;;;;;;;;;;;;;;;5001532;28;20402;-44
2022/07/18 13:08:38;;;;;;;;;;;;;;;;;;5008287;28;19957;-43
2022/07/18 13:11:05;;;;;;;;;;;;;;;;;;4998594;28;19917;-44
2022/07/18 13:13:32;;;;;;;;;;;;;;;;;;4990433;28;19916;-44
2022/07/18 13:15:58;;;;;;;;;;;;;;;;;;4987161;28;19918;-43
2022/07/18 13:18:24;;;;;;;;;;;;;;;;;;4988473;28;19909;-43
2022/07/18 13:20:50;;;;;;;;;;;;;;;;;;4988991;28;20036;-43
2022/07/18 13:23:16;;;;;;;;;;;;;;;;;;5003063;28;19917;-44
2022/07/18 13:25:41;;;;;;;;;;;;;;;;;;5007734;28;19948;-45
2022/07/18 13:28:07;;;;;;;;;;;;;;;;;;5007688;28;19955;-43
2022/07/18 13:30:34;;;;;;;;;;;;;;;;;;5004128;28;19926;-44
2022/07/18 13:33:00;;;;;;;;;;;;;;;;;;4995076;28;19917;-44
2022/07/18 13:35:26;;;;;;;;;;;;;;;;;;5008536;28;19910;-48
2022/07/18 13:37:52;;;;;;;;;;;;;;;;;;4999047;28;19933;-44
2022/07/18 13:40:18;;;;;;;;;;;;;;;;;;4990214;28;20290;-43
2022/07/18 13:42:44;;;;;;;;;;;;;;;;;;5006550;28;19983;-44
2022/07/18 13:45:12;;;;;;;;;;;;;;;;;;5007985;28;19914;-44
2022/07/18 13:47:38;;;;;;;;;;;;;;;;;;4997575;28;19921;-44
2022/07/18 13:50:06;;;;;;;;;;;;;;;;;;4996239;28;20337;-45
2022/07/18 13:52:31;;;;;;;;;;;;;;;;;;5006954;28;19955;-44
2022/07/18 13:54:57;;;;;;;;;;;;;;;;;;4988852;28;19918;-45
2022/07/18 13:57:23;;;;;;;;;;;;;;;;;;4989184;28;19941;-45
2022/07/18 13:59:49;;;;;;;;;;;;;;;;;;4989787;28;20004;-44
2022/07/18 14:02:15;;;;;;;;;;;;;;;;;;4988968;28;20000;-44
2022/07/18 14:04:41;;;;;;;;;;;;;;;;;;4989037;28;19980;-46
2022/07/18 14:07:08;;;;;;;;;;;;;;;;;;4988788;28;20386;-47
2022/07/18 14:09:34;;;;;;;;;;;;;;;;;;4989201;28;19910;-46
2022/07/18 14:12:00;;;;;;;;;;;;;;;;;;4989437;28;19929;-45
2022/07/18 14:14:26;;;;;;;;;;;;;;;;;;5007381;28;19925;-46
2022/07/18 14:16:53;;;;;;;;;;;;;;;;;;4989419;28;19914;-43
2022/07/18 14:19:19;;;;;;;;;;;;;;;;;;4989145;28;19921;-42
2022/07/18 14:21:45;;;;;;;;;;;;;;;;;;4988732;28;19913;-44
2022/07/18 14:24:12;;;;;;;;;;;;;;;;;;4988476;28;19914;-43
2022/07/18 14:26:38;;;;;;;;;;;;;;;;;;4988334;28;19956;-43
2022/07/18 14:29:04;;;;;;;;;;;;;;;;;;4996616;28;19956;-44
2022/07/18 14:31:30;;;;;;;;;;;;;;;;;;4997166;28;19920;-44
2022/07/18 14:33:56;;;;;;;;;;;;;;;;;;5007900;28;19914;-44
2022/07/18 14:36:23;;;;;;;;;;;;;;;;;;4994958;28;19937;-43
2022/07/18 14:38:49;;;;;;;;;;;;;;;;;;4999198;28;19917;-46
2022/07/18 14:41:15;;;;;;;;;;;;;;;;;;4995035;28;19909;-43
2022/07/18 14:43:40;;;;;;;;;;;;;;;;;;4994050;28;19961;-46
2022/07/18 14:46:06;;;;;;;;;;;;;;;;;;4987175;28;19914;-45
2022/07/18 14:48:32;;;;;;;;;;;;;;;;;;5001880;28;20017;-46
2022/07/18 14:50:58;;;;;;;;;;;;;;;;;;5003173;28;19909;-44
2022/07/18 14:53:24;;;;;;;;;;;;;;;;;;4990609;28;21653;-44
2022/07/18 14:55:50;;;;;;;;;;;;;;;;;;4998952;28;19925;-45
2022/07/18 14:58:16;;;;;;;;;;;;;;;;;;4990402;28;19913;-45
2022/07/18 15:00:42;;;;;;;;;;;;;;;;;;5002354;28;19967;-47
2022/07/18 15:03:09;;;;;;;;;;;;;;;;;;4994663;28;19922;-45
2022/07/18 15:05:36;;;;;;;;;;;;;;;;;;4986761;28;19914;-47
2022/07/18 15:08:03;;;;;;;;;;;;;;;;;;4991832;28;20416;-44
2022/07/18 15:10:28;;;;;;;;;;;;;;;;;;5004935;28;20348;-44
2022/07/18 15:12:54;;;;;;;;;;;;;;;;;;4989473;28;19918;-47
2022/07/18 15:15:20;;;;;;;;;;;;;;;;;;4999035;28;19913;-45
2022/07/18 15:17:46;;;;;;;;;;;;;;;;;;4997722;28;20208;-46
2022/07/18 15:20:12;;;;;;;;;;;;;;;;;;4993122;28;20223;-45
2022/07/18 15:22:38;;;;;;;;;;;;;;;;;;4988665;28;19925;-44
2022/07/18 15:25:04;;;;;;;;;;;;;;;;;;4995388;28;19920;-45
2022/07/18 15:27:30;;;;;;;;;;;;;;;;;;4999707;28;19913;-44
2022/07/18 15:29:56;;;;;;;;;;;;;;;;;;4997526;28;19918;-43
2022/07/18 15:32:23;;;;;;;;;;;;;;;;;;4988013;28;19917;-44
2022/07/18 15:34:49;;;;;;;;;;;;;;;;;;4995724;28;19917;-44
2022/07/18 15:37:16;;;;;;;;;;;;;;;;;;4998936;28;19917;-44
2022/07/18 15:39:42;;;;;;;;;;;;;;;;;;4988749;28;19914;-46
2022/07/18 15:42:08;;;;;;;;;;;;;;;;;;4996233;28;19932;-44
2022/07/18 15:44:37;;;;;;;;;;;;;;;;;;4995548;28;19922;-47
2022/07/18 15:47:03;;;;;;;;;;;;;;;;;;4986059;28;19921;-43
2022/07/18 15:49:29;;;;;;;;;;;;;;;;;;4995080;28;19913;-44
2022/07/18 15:51:55;;;;;;;;;;;;;;;;;;4999325;28;19913;-43
2022/07/18 15:54:21;;;;;;;;;;;;;;;;;;5006289;28;19917;-45
2022/07/18 15:56:48;;;;;;;;;;;;;;;;;;5003720;28;20362;-43
2022/07/18 15:59:13;;;;;;;;;;;;;;;;;;4994481;28;19918;-46
2022/07/18 16:01:39;;;;;;;;;;;;;;;;;;4988073;28;19909;-47
2022/07/18 16:04:05;;;;;;;;;;;;;;;;;;4998134;28;19918;-44
2022/07/18 16:06:32;;;;;;;;;;;;;;;;;;4996117;28;19964;-45
2022/07/18 16:08:59;;;;;;;;;;;;;;;;;;4989128;28;19917;-46
2022/07/18 16:11:25;;;;;;;;;;;;;;;;;;5001712;28;19924;-45
2022/07/18 16:13:51;;;;;;;;;;;;;;;;;;4987754;28;19914;-46
2022/07/18 16:16:18;;;;;;;;;;;;;;;;;;4998791;28;19914;-43
2022/07/18 16:18:45;;;;;;;;;;;;;;;;;;5002279;28;19918;-47
2022/07/18 16:21:11;;;;;;;;;;;;;;;;;;4998561;28;20100;-46
2022/07/18 16:23:38;;;;;;;;;;;;;;;;;;5001746;28;20016;-44
2022/07/18 16:26:04;;;;;;;;;;;;;;;;;;4997270;28;19925;-42
2022/07/18 16:28:30;;;;;;;;;;;;;;;;;;4995108;28;19913;-43
2022/07/18 16:30:55;;;;;;;;;;;;;;;;;;4997787;28;19956;-44
2022/07/18 16:33:22;;;;;;;;;;;;;;;;;;5000624;28;19922;-43
2022/07/18 16:35:49;;;;;;;;;;;;;;;;;;4989359;28;19917;-43
2022/07/18 16:38:16;;;;;;;;;;;;;;;;;;4989879;28;19949;-43
2022/07/18 16:40:43;;;;;;;;;;;;;;;;;;4994896;28;20052;-44
2022/07/18 16:43:10;;;;;;;;;;;;;;;;;;4993718;28;20008;-44